createdAt,value
2023-02-03T00:01:12.982Z,-1.51
2023-02-03T00:03:42.516Z,-1.50
2023-02-03T00:06:11.885Z,-1.46
2023-02-03T00:08:43.400Z,-1.35
2023-02-03T00:11:12.608Z,-1.61
2023-02-03T00:13:41.944Z,-1.98
2023-02-03T00:16:22.024Z,-1.61
2023-02-03T00:18:51.337Z,-1.60
2023-02-03T00:21:20.473Z,-1.49
2023-02-03T00:23:51.993Z,-1.38
2023-02-03T00:26:21.191Z,-1.29
2023-02-03T00:28:55.805Z,-1.20
2023-02-03T00:31:26.669Z,-1.13
2023-02-03T00:36:35.531Z,-1.11
2023-02-03T00:39:12.021Z,-1.04
2023-02-03T00:41:41.249Z,-1.08
2023-02-03T00:44:10.456Z,-1.37
2023-02-03T00:46:49.980Z,-1.28
2023-02-03T00:49:30.159Z,-1.25
2023-02-03T00:51:59.464Z,-1.29
2023-02-03T00:54:32.634Z,-1.15
2023-02-03T00:57:08.226Z,-1.21
2023-02-03T00:59:37.550Z,-1.15
2023-02-03T01:02:13.418Z,-1.32
2023-02-03T01:04:53.648Z,-1.18
2023-02-03T01:07:22.959Z,-1.23
2023-02-03T01:09:55.286Z,-1.31
2023-02-03T01:12:32.983Z,-1.45
2023-02-03T01:15:02.356Z,-1.48
2023-02-03T01:17:33.476Z,-1.44
2023-02-03T01:20:02.752Z,-1.49
2023-02-03T01:22:39.844Z,-1.41
2023-02-03T01:25:12.850Z,-1.49
2023-02-03T01:27:41.768Z,-1.15
2023-02-03T01:30:12.476Z,-1.24
2023-02-03T01:32:41.684Z,-1.19
2023-02-03T01:35:11.079Z,-1.13
2023-02-03T01:37:45.270Z,-1.06
2023-02-03T01:42:51.326Z,-0.93
2023-02-03T01:45:30.950Z,-0.93
2023-02-03T01:48:06.201Z,-0.95
2023-02-03T01:50:38.327Z,-1.15
2023-02-03T01:53:13.628Z,-0.96
2023-02-03T01:55:48.689Z,-0.91
2023-02-03T01:58:24.304Z,-1.08
2023-02-03T02:00:57.069Z,-0.98
2023-02-03T02:03:29.737Z,-0.98
2023-02-03T02:06:05.668Z,-0.78
2023-02-03T02:08:35.257Z,-0.88
2023-02-03T02:11:07.287Z,-0.94
2023-02-03T02:13:39.556Z,-0.96
2023-02-03T02:16:17.013Z,-0.83
2023-02-03T02:19:02.265Z,-0.88
2023-02-03T02:21:50.897Z,-0.77
2023-02-03T02:24:50.480Z,-0.74
2023-02-03T02:27:34.144Z,-1.00
2023-02-03T02:30:43.509Z,-0.78
2023-02-03T02:33:21.083Z,-0.77
2023-02-03T02:35:59.432Z,-0.71
2023-02-03T02:38:48.764Z,-0.65
2023-02-03T02:41:25.031Z,-0.68
2023-02-03T02:44:03.403Z,-0.63
2023-02-03T02:46:40.542Z,-0.60
2023-02-03T02:49:18.433Z,-0.66
2023-02-03T02:51:50.459Z,-0.61
2023-02-03T02:54:23.687Z,-0.66
2023-02-03T02:56:57.523Z,-0.52
2023-02-03T02:59:31.927Z,-0.57
2023-02-03T03:02:01.770Z,-0.62
2023-02-03T03:04:35.833Z,-0.57
2023-02-03T03:07:10.247Z,-0.56
2023-02-03T03:09:44.927Z,-0.58
2023-02-03T03:12:18.877Z,-0.56
2023-02-03T03:14:57.098Z,-0.58
2023-02-03T03:17:29.804Z,-0.81
2023-02-03T03:20:11.375Z,-0.72
2023-02-03T03:22:45.951Z,-0.73
2023-02-03T03:25:19.192Z,-0.78
2023-02-03T03:27:53.892Z,-0.78
2023-02-03T03:33:07.520Z,-0.71
2023-02-03T03:35:49.383Z,-0.61
2023-02-03T03:38:25.333Z,-0.63
2023-02-03T03:41:01.108Z,-0.71
2023-02-03T03:43:33.906Z,-0.60
2023-02-03T03:46:06.833Z,-0.57
2023-02-03T03:48:47.340Z,-0.60
2023-02-03T03:51:22.375Z,-0.56
2023-02-03T03:53:54.004Z,-0.57
2023-02-03T03:56:34.533Z,-0.59
2023-02-03T03:59:10.806Z,-0.68
2023-02-03T04:01:41.179Z,-0.67
2023-02-03T04:04:13.216Z,-0.93
2023-02-03T04:06:44.069Z,-0.48
2023-02-03T04:09:13.335Z,-0.67
2023-02-03T04:11:55.444Z,-0.74
2023-02-03T04:14:24.898Z,-0.69
2023-02-03T04:16:53.971Z,-0.68
2023-02-03T04:19:23.196Z,-0.64
2023-02-03T04:21:54.700Z,-0.56
2023-02-03T04:24:23.916Z,-0.50
2023-02-03T04:26:52.998Z,-0.50
2023-02-03T04:29:22.300Z,-0.63
2023-02-03T04:31:51.536Z,-0.45
2023-02-03T04:34:20.763Z,-0.51
2023-02-03T04:37:02.372Z,-0.51
2023-02-03T04:39:31.522Z,-0.52
2023-02-03T04:42:01.093Z,-0.48
2023-02-03T04:44:30.521Z,-0.42
2023-02-03T04:47:07.673Z,-0.46
2023-02-03T04:49:36.851Z,-0.48
2023-02-03T04:52:08.537Z,-0.42
2023-02-03T04:54:37.829Z,-0.63
2023-02-03T04:57:07.422Z,-0.38
2023-02-03T04:59:36.631Z,-0.43
2023-02-03T05:02:05.912Z,-0.29
2023-02-03T05:04:35.058Z,-0.29
2023-02-03T05:07:04.503Z,-0.29
2023-02-03T05:09:41.014Z,-0.38
2023-02-03T05:12:10.264Z,-0.36
2023-02-03T05:14:39.410Z,-0.32
2023-02-03T05:17:13.682Z,-0.52
2023-02-03T05:19:43.137Z,-0.57
2023-02-03T05:22:22.527Z,-0.54
2023-02-03T05:24:53.716Z,-0.55
2023-02-03T05:27:23.121Z,-0.74
2023-02-03T05:29:52.408Z,-0.51
2023-02-03T05:32:26.672Z,-0.42
2023-02-03T05:35:05.928Z,-0.31
2023-02-03T05:37:35.597Z,-0.28
2023-02-03T05:40:21.052Z,-0.33
2023-02-03T05:42:51.035Z,-0.24
2023-02-03T05:48:02.132Z,-0.21
2023-02-03T05:50:33.605Z,-0.58
2023-02-03T05:53:11.718Z,-0.22
2023-02-03T05:55:47.948Z,-0.16
2023-02-03T05:58:17.498Z,-0.28
2023-02-03T06:00:47.032Z,-0.30
2023-02-03T06:03:16.465Z,-0.38
2023-02-03T06:05:45.679Z,-0.18
2023-02-03T06:08:14.821Z,-0.11
2023-02-03T06:10:43.953Z,-0.16
2023-02-03T06:13:20.208Z,-0.05
2023-02-03T06:15:49.512Z,-0.02
2023-02-03T06:18:18.654Z,0.07
2023-02-03T06:21:00.204Z,0.11
2023-02-03T06:23:29.414Z,0.15
2023-02-03T06:25:59.969Z,0.13
2023-02-03T06:28:33.113Z,0.15
2023-02-03T06:31:08.771Z,0.21
2023-02-03T06:33:38.071Z,0.22
2023-02-03T06:36:07.977Z,-0.03
2023-02-03T06:38:37.151Z,0.21
2023-02-03T06:41:06.643Z,0.34
2023-02-03T06:43:43.390Z,0.44
2023-02-03T06:46:14.003Z,0.39
2023-02-03T06:48:43.202Z,0.40
2023-02-03T06:51:12.295Z,0.51
2023-02-03T06:53:54.976Z,0.50
2023-02-03T06:56:24.122Z,0.49
2023-02-03T06:58:55.152Z,0.55
2023-02-03T07:01:25.502Z,0.57
2023-02-03T07:03:57.491Z,0.59
2023-02-03T07:06:28.764Z,0.66
2023-02-03T07:08:59.519Z,0.69
2023-02-03T07:11:30.488Z,0.61
2023-02-03T07:14:06.954Z,0.68
2023-02-03T07:16:37.125Z,0.76
2023-02-03T07:19:12.863Z,0.60
2023-02-03T07:21:42.218Z,0.65
2023-02-03T07:24:11.609Z,0.73
2023-02-03T07:26:46.636Z,0.84
2023-02-03T07:29:17.712Z,0.87
2023-02-03T07:31:52.234Z,0.91
2023-02-03T07:34:21.396Z,0.41
2023-02-03T07:36:55.965Z,0.94
2023-02-03T07:39:26.091Z,0.83
2023-02-03T07:41:55.506Z,0.82
2023-02-03T07:44:27.656Z,1.10
2023-02-03T07:46:57.262Z,1.21
2023-02-03T07:49:26.463Z,1.26
2023-02-03T07:51:56.099Z,1.20
2023-02-03T07:54:25.210Z,1.40
2023-02-03T07:56:54.560Z,1.54
2023-02-03T07:59:23.587Z,1.59
2023-02-03T08:01:55.845Z,1.62
2023-02-03T08:04:25.270Z,1.72
2023-02-03T08:06:54.807Z,1.65
2023-02-03T08:09:24.009Z,1.86
2023-02-03T08:11:53.534Z,1.88
2023-02-03T08:14:23.521Z,1.91
2023-02-03T08:16:54.526Z,2.02
2023-02-03T08:19:23.679Z,1.96
2023-02-03T08:21:52.804Z,1.81
2023-02-03T08:24:22.861Z,1.64
2023-02-03T08:26:52.554Z,1.52
2023-02-03T08:29:26.865Z,1.43
2023-02-03T08:31:59.738Z,1.37
2023-02-03T08:34:29.291Z,1.34
2023-02-03T08:36:58.454Z,1.35
2023-02-03T08:39:27.827Z,1.34
2023-02-03T08:41:57.023Z,1.14
2023-02-03T08:44:26.405Z,1.25
2023-02-03T08:46:58.002Z,1.08
2023-02-03T08:49:29.255Z,1.34
2023-02-03T08:52:04.097Z,1.44
2023-02-03T08:54:33.318Z,1.43
2023-02-03T08:57:05.134Z,1.55
2023-02-03T08:59:35.714Z,1.63
2023-02-03T09:02:18.200Z,1.50
2023-02-03T09:04:49.947Z,1.39
2023-02-03T09:07:19.296Z,1.48
2023-02-03T09:09:48.533Z,1.52
2023-02-03T09:12:22.755Z,1.35
2023-02-03T09:14:52.438Z,1.56
2023-02-03T09:17:23.665Z,1.64
2023-02-03T09:19:52.945Z,1.71
2023-02-03T09:22:22.051Z,1.72
2023-02-03T09:24:56.950Z,1.75
2023-02-03T09:27:26.090Z,1.72
2023-02-03T09:29:55.283Z,1.67
2023-02-03T09:32:33.531Z,1.44
2023-02-03T09:35:02.715Z,1.37
2023-02-03T09:37:32.729Z,1.36
2023-02-03T09:40:08.500Z,1.45
2023-02-03T09:43:05.602Z,1.45
2023-02-03T09:45:40.127Z,1.67
2023-02-03T09:48:18.542Z,2.00
2023-02-03T09:50:50.486Z,2.14
2023-02-03T09:53:29.679Z,2.35
2023-02-03T09:56:01.509Z,2.34
2023-02-03T09:58:35.781Z,2.38
2023-02-03T10:01:10.507Z,2.44
2023-02-03T10:03:53.937Z,2.35
2023-02-03T10:06:33.529Z,2.49
2023-02-03T10:09:21.362Z,2.61
2023-02-03T10:12:05.752Z,2.62
2023-02-03T10:14:48.319Z,2.66
2023-02-03T10:17:30.000Z,2.50
2023-02-03T10:20:06.626Z,2.65
2023-02-03T10:22:42.491Z,2.76
2023-02-03T10:25:24.392Z,2.91
2023-02-03T10:27:54.313Z,3.02
2023-02-03T10:30:25.694Z,2.74
2023-02-03T10:32:57.702Z,2.69
2023-02-03T10:35:30.209Z,2.86
2023-02-03T10:38:01.125Z,2.69
2023-02-03T10:40:31.266Z,2.55
2023-02-03T10:43:13.959Z,2.51
2023-02-03T10:45:43.259Z,2.37
2023-02-03T10:48:17.665Z,2.40
2023-02-03T10:50:52.055Z,2.48
2023-02-03T10:53:28.460Z,2.53
2023-02-03T10:56:07.135Z,2.55
2023-02-03T10:58:38.348Z,2.63
2023-02-03T11:01:19.716Z,2.55
2023-02-03T11:03:59.821Z,2.73
2023-02-03T11:06:32.462Z,2.75
2023-02-03T11:09:26.038Z,2.83
2023-02-03T11:12:14.124Z,2.85
2023-02-03T11:14:44.940Z,2.86
2023-02-03T11:17:19.231Z,2.86
2023-02-03T11:19:50.399Z,2.89
2023-02-03T11:22:32.607Z,3.05
2023-02-03T11:25:01.922Z,3.26
2023-02-03T11:27:34.996Z,3.18
2023-02-03T11:30:17.089Z,3.23
2023-02-03T11:32:47.655Z,3.32
2023-02-03T11:35:24.631Z,3.18
2023-02-03T11:37:57.060Z,2.98
2023-02-03T11:40:28.313Z,2.79
2023-02-03T11:43:06.947Z,2.96
2023-02-03T11:45:42.205Z,2.97
2023-02-03T11:48:30.270Z,2.84
2023-02-03T11:51:11.747Z,2.43
2023-02-03T11:53:59.846Z,2.77
2023-02-03T11:56:37.908Z,2.73
2023-02-03T11:59:37.589Z,2.50
2023-02-03T12:02:43.906Z,2.66
2023-02-03T12:05:31.038Z,2.73
2023-02-03T12:08:18.066Z,2.89
2023-02-03T12:11:02.964Z,2.92
2023-02-03T12:14:10.030Z,2.94
2023-02-03T12:17:05.986Z,2.96
2023-02-03T12:19:49.852Z,2.84
2023-02-03T12:22:27.985Z,2.73
2023-02-03T12:25:06.198Z,2.58
2023-02-03T12:27:48.630Z,2.41
2023-02-03T12:30:21.992Z,2.54
2023-02-03T12:32:55.808Z,2.38
2023-02-03T12:35:32.085Z,2.56
2023-02-03T12:38:07.305Z,2.55
2023-02-03T12:40:41.999Z,2.48
2023-02-03T12:43:29.548Z,2.47
2023-02-03T12:46:03.178Z,2.46
2023-02-03T12:53:54.177Z,2.03
2023-02-03T12:56:29.625Z,1.87
2023-02-03T12:59:09.856Z,1.79
2023-02-03T13:01:46.918Z,1.87
2023-02-03T13:04:32.040Z,1.84
2023-02-03T13:07:10.311Z,1.86
2023-02-03T13:09:54.959Z,1.63
2023-02-03T13:12:31.583Z,1.89
2023-02-03T13:15:14.103Z,1.90
2023-02-03T13:17:50.365Z,1.85
2023-02-03T13:20:24.206Z,1.67
2023-02-03T13:22:53.893Z,1.77
2023-02-03T13:25:29.115Z,1.74
2023-02-03T13:28:20.268Z,1.72
2023-02-03T13:31:15.027Z,1.72
2023-02-03T13:34:04.026Z,1.64
2023-02-03T13:37:01.124Z,1.57
2023-02-03T13:39:53.500Z,1.53
2023-02-03T13:42:28.248Z,1.49
2023-02-03T13:45:01.914Z,1.36
2023-02-03T13:47:34.668Z,1.30
2023-02-03T13:50:07.163Z,1.31
2023-02-03T13:52:42.302Z,0.98
2023-02-03T13:55:31.047Z,1.10
2023-02-03T13:58:03.879Z,1.29
2023-02-03T14:01:03.358Z,1.29
2023-02-03T14:03:48.754Z,1.35
2023-02-03T14:07:02.239Z,0.88
2023-02-03T14:10:23.516Z,1.31
2023-02-03T14:13:03.995Z,1.18
2023-02-03T14:15:39.237Z,1.04
2023-02-03T14:18:36.718Z,1.12
2023-02-03T14:21:14.839Z,1.07
2023-02-03T14:23:49.945Z,0.95
2023-02-03T14:26:36.007Z,0.88
2023-02-03T14:29:10.711Z,0.96
2023-02-03T14:31:57.249Z,0.99
2023-02-03T14:34:39.638Z,1.01
2023-02-03T14:37:16.452Z,0.92
2023-02-03T14:40:15.206Z,0.90
2023-02-03T14:43:22.380Z,0.90
2023-02-03T14:46:18.788Z,0.89
2023-02-03T14:48:59.631Z,0.86
2023-02-03T14:51:47.152Z,0.83
2023-02-03T14:54:31.196Z,0.96
2023-02-03T14:57:19.208Z,0.88
2023-02-03T14:59:52.068Z,0.78
2023-02-03T15:02:31.761Z,0.77
2023-02-03T15:05:36.412Z,0.75
2023-02-03T15:08:06.121Z,0.73
2023-02-03T15:10:44.247Z,0.63
2023-02-03T15:16:19.679Z,0.60
2023-02-03T15:18:57.428Z,0.55
2023-02-03T15:21:27.124Z,0.57
2023-02-03T15:23:56.737Z,0.65
2023-02-03T15:26:28.647Z,0.61
2023-02-03T15:29:01.897Z,0.32
2023-02-03T15:31:35.795Z,0.57
2023-02-03T15:34:12.990Z,0.60
2023-02-03T15:36:47.635Z,0.59
2023-02-03T15:39:24.129Z,0.60
2023-02-03T15:41:56.564Z,0.41
2023-02-03T15:44:32.526Z,0.67
2023-02-03T15:47:05.826Z,0.62
2023-02-03T15:49:42.313Z,0.60
2023-02-03T15:52:17.427Z,0.48
2023-02-03T15:54:58.958Z,0.62
2023-02-03T15:57:38.483Z,0.66
2023-02-03T16:00:25.911Z,0.71
2023-02-03T16:02:57.765Z,0.61
2023-02-03T16:05:32.045Z,0.46
2023-02-03T16:08:31.233Z,0.74
2023-02-03T16:13:35.630Z,0.76
2023-02-03T16:16:09.965Z,0.73
2023-02-03T16:18:58.228Z,0.74
2023-02-03T16:21:35.565Z,0.68
2023-02-03T16:24:45.752Z,0.65
2023-02-03T16:27:33.813Z,0.76
2023-02-03T16:30:36.519Z,0.70
2023-02-03T16:33:31.238Z,0.52
2023-02-03T16:36:26.308Z,0.62
2023-02-03T16:39:10.451Z,0.72
2023-02-03T16:41:52.961Z,0.73
2023-02-03T16:44:35.078Z,0.75
2023-02-03T16:47:18.395Z,0.74
2023-02-03T16:50:00.493Z,0.69
2023-02-03T16:52:29.379Z,0.85
2023-02-03T16:55:00.817Z,0.77
2023-02-03T16:57:30.218Z,0.81
2023-02-03T16:59:59.331Z,0.76
2023-02-03T17:02:28.517Z,0.67
2023-02-03T17:04:58.191Z,0.72
2023-02-03T17:07:27.994Z,0.55
2023-02-03T17:09:57.253Z,0.76
2023-02-03T17:12:30.809Z,0.65
2023-02-03T17:15:00.176Z,0.67
2023-02-03T17:17:29.699Z,0.69
2023-02-03T17:20:05.307Z,0.66
2023-02-03T17:22:34.574Z,0.67
2023-02-03T17:25:03.942Z,0.57
2023-02-03T17:27:35.671Z,0.48
2023-02-03T17:30:05.151Z,0.65
2023-02-03T17:32:34.561Z,0.72
2023-02-03T17:35:03.815Z,0.68
2023-02-03T17:37:35.054Z,0.76
2023-02-03T17:54:04.399Z,0.50
2023-02-03T17:56:36.137Z,0.62
2023-02-03T17:59:07.644Z,0.61
2023-02-03T18:01:38.190Z,0.64
2023-02-03T18:04:08.427Z,0.63
2023-02-03T18:06:37.904Z,0.57
2023-02-03T18:09:09.770Z,0.55
2023-02-03T18:11:39.821Z,0.63
2023-02-03T18:14:13.286Z,0.78
2023-02-03T18:16:44.023Z,0.82
2023-02-03T18:19:16.255Z,0.68
2023-02-03T18:21:47.107Z,0.87
2023-02-03T18:24:21.935Z,0.84
2023-02-03T18:26:53.056Z,0.86
2023-02-03T18:29:24.447Z,0.84
2023-02-03T18:31:53.746Z,0.78
2023-02-03T18:34:23.438Z,0.84
2023-02-03T18:36:57.771Z,0.82
2023-02-03T18:39:27.122Z,0.79
2023-02-03T18:41:56.268Z,0.82
2023-02-03T18:44:27.498Z,0.58
2023-02-03T18:47:04.837Z,0.68
2023-02-03T18:49:36.307Z,0.69
2023-02-03T18:52:06.464Z,0.56
2023-02-03T18:54:35.587Z,0.60
2023-02-03T18:57:05.430Z,0.58
2023-02-03T18:59:36.578Z,0.36
2023-02-03T19:02:05.927Z,0.47
2023-02-03T19:04:35.785Z,0.54
2023-02-03T19:07:05.048Z,0.51
2023-02-03T19:09:34.685Z,0.48
2023-02-03T19:12:04.531Z,0.50
2023-02-03T19:14:42.069Z,0.48
2023-02-03T19:17:11.902Z,0.48
2023-02-03T19:22:16.582Z,0.42
2023-02-03T19:24:45.709Z,0.47
2023-02-03T19:27:14.997Z,0.33
2023-02-03T19:29:45.997Z,0.58
2023-02-03T19:32:15.591Z,0.60
2023-02-03T19:34:49.790Z,0.64
2023-02-03T19:37:19.151Z,0.62
2023-02-03T19:39:51.115Z,0.55
2023-02-03T19:42:20.493Z,0.61
2023-02-03T19:44:52.181Z,0.66
2023-02-03T19:47:21.399Z,0.53
2023-02-03T19:49:50.634Z,0.62
2023-02-03T19:52:20.002Z,0.61
2023-02-03T19:54:51.789Z,0.65
2023-02-03T19:57:22.159Z,0.82
2023-02-03T19:59:58.272Z,0.74
2023-02-03T20:02:27.647Z,0.67
2023-02-03T20:04:57.180Z,0.69
2023-02-03T20:07:28.119Z,0.71
2023-02-03T20:10:02.770Z,0.60
2023-02-03T20:12:32.611Z,0.73
2023-02-03T20:15:04.186Z,0.73
2023-02-03T20:17:33.649Z,0.74
2023-02-03T20:20:03.836Z,0.61
2023-02-03T20:22:33.926Z,0.75
2023-02-03T20:25:03.099Z,0.64
2023-02-03T20:27:32.606Z,0.58
2023-02-03T20:30:03.924Z,0.59
2023-02-03T20:32:34.063Z,0.33
2023-02-03T20:35:03.684Z,0.62
2023-02-03T20:37:35.600Z,0.64
2023-02-03T20:40:05.567Z,0.47
2023-02-03T20:42:35.767Z,0.68
2023-02-03T20:45:12.534Z,0.71
2023-02-03T20:47:47.288Z,0.74
2023-02-03T20:50:21.727Z,0.76
2023-02-03T20:52:58.466Z,0.60
2023-02-03T20:55:35.752Z,0.74
2023-02-03T20:58:06.622Z,0.78
2023-02-03T21:00:39.191Z,0.68
2023-02-03T21:03:29.175Z,0.34
2023-02-03T21:05:58.999Z,0.73
2023-02-03T21:08:33.833Z,0.74
2023-02-03T21:11:03.031Z,0.67
2023-02-03T21:13:37.583Z,0.74
2023-02-03T21:16:18.189Z,0.74
2023-02-03T21:18:50.862Z,0.67
2023-02-03T21:21:24.606Z,0.57
2023-02-03T21:24:00.232Z,0.44
2023-02-03T21:26:32.391Z,0.48
2023-02-03T21:29:03.595Z,0.62
2023-02-03T21:31:36.109Z,0.63
2023-02-03T21:36:55.163Z,0.60
2023-02-03T21:39:30.560Z,0.64
2023-02-03T21:42:04.488Z,0.60
2023-02-03T21:44:42.767Z,0.45
2023-02-03T21:47:19.264Z,0.56
2023-02-03T21:49:53.608Z,0.52
2023-02-03T21:52:22.662Z,0.53
2023-02-03T21:54:51.997Z,0.52
2023-02-03T21:57:22.302Z,0.37
2023-02-03T21:59:51.424Z,0.52
2023-02-03T22:02:49.637Z,0.55
2023-02-03T22:05:18.897Z,0.49
2023-02-03T22:07:47.905Z,0.36
2023-02-03T22:10:17.616Z,0.42
2023-02-03T22:12:46.729Z,0.41
2023-02-03T22:15:16.048Z,0.43
2023-02-03T22:17:49.338Z,0.42
2023-02-03T22:20:18.659Z,0.48
2023-02-03T22:25:29.225Z,0.47
2023-02-03T22:28:03.382Z,0.37
2023-02-03T22:30:33.178Z,0.50
2023-02-03T22:33:04.444Z,0.44
2023-02-03T22:35:33.933Z,0.53
2023-02-03T22:38:03.074Z,0.45
2023-02-03T22:40:32.857Z,0.31
2023-02-03T22:43:02.670Z,0.24
2023-02-03T22:45:32.167Z,0.18
2023-02-03T22:48:01.329Z,0.25
2023-02-03T22:50:35.910Z,0.24
2023-02-03T22:53:06.643Z,0.23
2023-02-03T22:55:35.730Z,0.20
2023-02-03T22:58:05.350Z,0.28
2023-02-03T23:00:39.583Z,0.26
2023-02-03T23:03:09.208Z,0.41
2023-02-03T23:05:40.304Z,0.42
2023-02-03T23:08:09.492Z,0.44
2023-02-03T23:10:38.687Z,0.41
2023-02-03T23:15:53.484Z,0.37
2023-02-03T23:18:22.644Z,0.33
2023-02-03T23:20:53.776Z,0.33
2023-02-03T23:23:23.089Z,0.37
2023-02-03T23:25:52.112Z,0.39
2023-02-03T23:28:21.699Z,0.38
2023-02-03T23:30:52.168Z,0.40
2023-02-03T23:33:21.767Z,0.45
2023-02-03T23:35:50.242Z,0.30
2023-02-03T23:38:21.280Z,0.30
2023-02-03T23:40:50.733Z,0.48
2023-02-03T23:43:20.926Z,0.50
2023-02-03T23:45:50.062Z,0.59
2023-02-03T23:48:19.210Z,0.58
2023-02-03T23:50:48.669Z,0.61
2023-02-03T23:53:17.808Z,0.62
2023-02-03T23:55:55.263Z,0.63
2023-02-03T23:58:24.638Z,0.55
